createdAt,value
2023-05-10T00:00:50.763Z,13.7
2023-05-10T00:02:07.803Z,13.6
2023-05-10T00:03:24.789Z,13.6
2023-05-10T00:04:41.737Z,13.6
2023-05-10T00:05:58.733Z,13.5
2023-05-10T00:07:15.818Z,13.6
2023-05-10T00:08:32.745Z,13.5
2023-05-10T00:09:49.749Z,13.5
2023-05-10T00:11:06.736Z,13.5
2023-05-10T00:12:23.803Z,13.4
2023-05-10T00:13:41.450Z,13.5
2023-05-10T00:14:57.760Z,13.5
2023-05-10T00:16:14.800Z,13.5
2023-05-10T00:17:31.756Z,13.5
2023-05-10T00:18:48.744Z,13.5
2023-05-10T00:20:05.790Z,13.4
2023-05-10T00:21:22.805Z,13.5
2023-05-10T00:22:39.758Z,13.4
2023-05-10T00:23:56.784Z,13.4
2023-05-10T00:25:13.814Z,13.3
2023-05-10T00:26:30.762Z,13.3
2023-05-10T00:27:47.773Z,13.2
2023-05-10T00:29:04.793Z,13.1
2023-05-10T00:30:22.146Z,13
2023-05-10T00:31:38.803Z,12.9
2023-05-10T00:32:55.797Z,12.9
2023-05-10T00:34:12.780Z,12.9
2023-05-10T00:35:29.835Z,12.8
2023-05-10T00:36:46.777Z,12.8
2023-05-10T00:38:03.785Z,12.8
2023-05-10T00:39:20.789Z,12.7
2023-05-10T00:40:37.814Z,12.8
2023-05-10T00:41:54.845Z,12.9
2023-05-10T00:43:11.787Z,12.9
2023-05-10T00:44:28.806Z,13.1
2023-05-10T00:45:45.827Z,13.1
2023-05-10T00:47:02.843Z,13.1
2023-05-10T00:48:19.798Z,13.1
2023-05-10T00:49:36.798Z,13.2
2023-05-10T00:50:53.795Z,13.1
2023-05-10T00:52:10.886Z,13.1
2023-05-10T00:53:27.891Z,13.1
2023-05-10T00:54:44.812Z,13.2
2023-05-10T00:56:01.930Z,13.2
2023-05-10T00:57:20.072Z,13.2
2023-05-10T00:58:36.813Z,13.1
2023-05-10T00:59:53.850Z,13.2
2023-05-10T01:01:10.858Z,13.2
2023-05-10T01:02:27.907Z,13.1
2023-05-10T01:03:44.874Z,13
2023-05-10T01:05:01.863Z,13
2023-05-10T01:06:18.837Z,13
2023-05-10T01:07:35.855Z,13
2023-05-10T01:08:52.881Z,13
2023-05-10T01:10:09.868Z,13
2023-05-10T01:11:26.845Z,13
2023-05-10T01:12:43.848Z,12.9
2023-05-10T01:14:00.911Z,12.9
2023-05-10T01:15:17.861Z,12.9
2023-05-10T01:16:34.860Z,12.9
2023-05-10T01:17:51.885Z,13
2023-05-10T01:19:08.916Z,13
2023-05-10T01:20:25.852Z,12.8
2023-05-10T01:21:42.841Z,12.8
2023-05-10T01:22:59.850Z,12.7
2023-05-10T01:24:16.925Z,12.7
2023-05-10T01:25:33.863Z,12.7
2023-05-10T01:26:50.855Z,12.6
2023-05-10T01:28:07.861Z,12.6
2023-05-10T01:29:24.913Z,12.6
2023-05-10T01:30:41.928Z,12.6
2023-05-10T01:31:58.866Z,12.5
2023-05-10T01:33:15.860Z,12.5
2023-05-10T01:34:32.871Z,12.5
2023-05-10T01:35:49.900Z,12.5
2023-05-10T01:37:06.951Z,12.5
2023-05-10T01:38:23.887Z,12.5
2023-05-10T01:39:40.881Z,12.5
2023-05-10T01:40:57.885Z,12.4
2023-05-10T01:42:14.902Z,12.4
2023-05-10T01:43:31.905Z,12.3
2023-05-10T01:44:48.870Z,12.3
2023-05-10T01:46:05.901Z,12.2
2023-05-10T01:47:22.914Z,12.1
2023-05-10T01:48:39.886Z,12
2023-05-10T01:49:56.919Z,11.9
2023-05-10T01:51:13.883Z,11.9
2023-05-10T01:52:30.935Z,11.9
2023-05-10T01:53:47.889Z,11.9
2023-05-10T01:55:04.912Z,11.9
2023-05-10T01:56:21.887Z,11.9
2023-05-10T01:57:38.901Z,11.9
2023-05-10T01:58:55.903Z,11.9
2023-05-10T02:00:12.943Z,11.9
2023-05-10T02:01:29.948Z,12
2023-05-10T02:02:47.108Z,12
2023-05-10T02:04:03.978Z,12
2023-05-10T02:05:20.928Z,12.1
2023-05-10T02:06:37.915Z,12
2023-05-10T02:07:54.912Z,12.1
2023-05-10T02:09:11.968Z,12.1
2023-05-10T02:10:28.937Z,12
2023-05-10T02:11:45.954Z,12.1
2023-05-10T02:13:02.952Z,12.1
2023-05-10T02:14:19.954Z,12.1
2023-05-10T02:15:36.932Z,12.1
2023-05-10T02:16:54.079Z,12.1
2023-05-10T02:18:10.947Z,12.2
2023-05-10T02:19:27.926Z,12.2
2023-05-10T02:20:44.968Z,12.1
2023-05-10T02:22:01.984Z,12.1
2023-05-10T02:23:18.932Z,12.1
2023-05-10T02:24:35.935Z,12.1
2023-05-10T02:25:52.980Z,12.1
2023-05-10T02:27:09.941Z,12.1
2023-05-10T02:28:27.011Z,12.1
2023-05-10T02:29:43.957Z,12.1
2023-05-10T02:31:00.972Z,12
2023-05-10T02:32:18.180Z,12.1
2023-05-10T02:33:34.981Z,12.1
2023-05-10T02:34:51.952Z,12.1
2023-05-10T02:36:08.958Z,12
2023-05-10T02:37:25.949Z,12.1
2023-05-10T02:38:43.020Z,12.1
2023-05-10T02:39:59.961Z,12.1
2023-05-10T02:41:16.962Z,12.1
2023-05-10T02:42:33.959Z,12.1
2023-05-10T02:43:50.984Z,12.1
2023-05-10T02:45:07.970Z,12.1
2023-05-10T02:46:25.009Z,12.1
2023-05-10T02:47:42.078Z,12
2023-05-10T02:48:58.992Z,12.1
2023-05-10T02:50:16.313Z,12.1
2023-05-10T02:51:32.982Z,12.1
2023-05-10T02:52:50.614Z,12.1
2023-05-10T02:54:06.985Z,12
2023-05-10T02:55:23.984Z,11.9
2023-05-10T02:56:41.036Z,11.8
2023-05-10T02:57:58.043Z,11.8
2023-05-10T02:59:14.994Z,11.7
2023-05-10T03:00:31.986Z,11.6
2023-05-10T03:01:49.053Z,11.6
2023-05-10T03:03:06.110Z,11.6
2023-05-10T03:04:23.017Z,11.5
2023-05-10T03:05:39.990Z,11.4
2023-05-10T03:06:57.038Z,11.3
2023-05-10T03:08:14.030Z,11.4
2023-05-10T03:09:31.005Z,11.4
2023-05-10T03:10:48.049Z,11.5
2023-05-10T03:12:05.010Z,11.6
2023-05-10T03:13:22.081Z,11.6
2023-05-10T03:14:39.041Z,11.6
2023-05-10T03:15:56.114Z,11.6
2023-05-10T03:17:13.058Z,11.6
2023-05-10T03:18:30.057Z,11.6
2023-05-10T03:19:47.150Z,11.7
2023-05-10T03:21:04.070Z,11.8
2023-05-10T03:22:21.015Z,11.8
2023-05-10T03:23:38.041Z,11.8
2023-05-10T03:24:55.026Z,11.9
2023-05-10T03:26:12.029Z,11.9
2023-05-10T03:27:29.047Z,11.9
2023-05-10T03:28:46.030Z,11.8
2023-05-10T03:30:03.075Z,11.7
2023-05-10T03:31:20.062Z,11.6
2023-05-10T03:32:37.093Z,11.6
2023-05-10T03:33:54.086Z,11.6
2023-05-10T03:35:11.039Z,11.6
2023-05-10T03:36:28.087Z,11.6
2023-05-10T03:37:45.029Z,11.6
2023-05-10T03:39:02.046Z,11.6
2023-05-10T03:40:19.211Z,11.6
2023-05-10T03:41:36.094Z,11.6
2023-05-10T03:42:53.057Z,11.7
2023-05-10T03:44:10.068Z,11.7
2023-05-10T03:45:27.074Z,11.8
2023-05-10T03:46:44.094Z,11.8
2023-05-10T03:48:01.159Z,11.7
2023-05-10T03:49:18.118Z,11.7
2023-05-10T03:50:35.127Z,11.7
2023-05-10T03:51:52.122Z,11.8
2023-05-10T03:53:09.091Z,11.8
2023-05-10T03:54:26.081Z,11.8
2023-05-10T03:55:43.062Z,11.8
2023-05-10T03:57:00.091Z,11.7
2023-05-10T03:58:17.101Z,11.6
2023-05-10T03:59:34.099Z,11.6
2023-05-10T04:00:51.119Z,11.6
2023-05-10T04:02:08.190Z,11.7
2023-05-10T04:03:25.141Z,11.7
2023-05-10T04:04:42.104Z,11.7
2023-05-10T04:05:59.110Z,11.8
2023-05-10T04:07:16.142Z,11.8
2023-05-10T04:08:33.076Z,11.8
2023-05-10T04:09:50.098Z,11.8
2023-05-10T04:11:07.418Z,11.7
2023-05-10T04:12:24.198Z,11.7
2023-05-10T04:13:41.148Z,11.7
2023-05-10T04:14:58.085Z,11.8
2023-05-10T04:16:15.139Z,11.8
2023-05-10T04:17:32.167Z,11.8
2023-05-10T04:18:49.140Z,11.9
2023-05-10T04:20:06.147Z,11.9
2023-05-10T04:21:23.105Z,11.9
2023-05-10T04:22:40.148Z,12
2023-05-10T04:23:57.132Z,12.2
2023-05-10T04:25:14.150Z,12.3
2023-05-10T04:26:31.109Z,12.4
2023-05-10T04:27:48.163Z,12.4
2023-05-10T04:29:05.124Z,12.4
2023-05-10T04:30:22.176Z,12.5
2023-05-10T04:31:39.121Z,12.6
2023-05-10T04:32:56.187Z,12.6
2023-05-10T04:34:13.202Z,12.6
2023-05-10T04:35:30.165Z,12.5
2023-05-10T04:36:47.158Z,12.6
2023-05-10T04:38:04.755Z,12.7
2023-05-10T04:39:21.125Z,12.6
2023-05-10T04:40:38.181Z,12.6
2023-05-10T04:41:55.159Z,12.7
2023-05-10T04:43:12.220Z,12.7
2023-05-10T04:44:29.144Z,12.7
2023-05-10T04:45:46.137Z,12.6
2023-05-10T04:47:03.166Z,12.6
2023-05-10T04:48:20.155Z,12.6
2023-05-10T04:49:37.158Z,12.5
2023-05-10T04:50:54.190Z,12.5
2023-05-10T04:52:11.134Z,12.6
2023-05-10T04:53:28.140Z,12.6
2023-05-10T04:54:45.176Z,12.7
2023-05-10T04:56:02.161Z,12.8
2023-05-10T04:57:19.159Z,12.9
2023-05-10T04:58:36.150Z,13
2023-05-10T04:59:53.207Z,13.1
2023-05-10T05:01:10.208Z,13.2
2023-05-10T05:02:27.217Z,13.2
2023-05-10T05:03:44.216Z,13.1
2023-05-10T05:05:01.246Z,13.2
2023-05-10T05:06:18.212Z,13.2
2023-05-10T05:07:35.241Z,13.2
2023-05-10T05:08:52.172Z,13.2
2023-05-10T05:10:09.254Z,13.2
2023-05-10T05:11:26.169Z,13.1
2023-05-10T05:12:43.160Z,13.2
2023-05-10T05:14:00.337Z,13.2
2023-05-10T05:15:17.194Z,13.4
2023-05-10T05:16:34.479Z,13.5
2023-05-10T05:17:51.246Z,13.4
2023-05-10T05:19:08.193Z,13.4
2023-05-10T05:20:25.216Z,13.4
2023-05-10T05:21:42.205Z,13.4
2023-05-10T05:22:59.208Z,13.4
2023-05-10T05:24:16.182Z,13.5
2023-05-10T05:25:33.190Z,13.6
2023-05-10T05:26:50.223Z,13.7
2023-05-10T05:28:07.200Z,13.9
2023-05-10T05:29:24.254Z,14.1
2023-05-10T05:30:41.244Z,14.3
2023-05-10T05:31:58.332Z,14.4
2023-05-10T05:33:15.204Z,14.4
2023-05-10T05:34:32.224Z,14.5
2023-05-10T05:35:49.207Z,14.4
2023-05-10T05:37:07.253Z,14.5
2023-05-10T05:38:24.602Z,14.6
2023-05-10T05:39:41.248Z,14.7
2023-05-10T05:40:58.208Z,14.6
2023-05-10T05:42:15.225Z,14.6
2023-05-10T05:43:32.213Z,14.5
2023-05-10T05:44:49.297Z,14.4
2023-05-10T05:46:06.248Z,14.4
2023-05-10T05:47:23.224Z,14.4
2023-05-10T05:48:40.207Z,14.4
2023-05-10T05:49:57.250Z,14.5
2023-05-10T05:51:14.214Z,14.6
2023-05-10T05:52:31.245Z,14.6
2023-05-10T05:53:48.245Z,14.7
2023-05-10T05:55:05.262Z,14.8
2023-05-10T05:56:22.224Z,14.9
2023-05-10T05:57:39.230Z,14.9
2023-05-10T05:58:56.252Z,15
2023-05-10T06:00:13.286Z,15.1
2023-05-10T06:01:30.289Z,15.1
2023-05-10T06:02:47.290Z,15
2023-05-10T06:04:04.298Z,15
2023-05-10T06:05:21.272Z,15
2023-05-10T06:06:38.330Z,15.1
2023-05-10T06:07:55.389Z,15.2
2023-05-10T06:09:12.322Z,15.3
2023-05-10T06:10:29.289Z,15.4
2023-05-10T06:11:46.342Z,15.6
2023-05-10T06:13:03.281Z,15.7
2023-05-10T06:14:20.276Z,16
2023-05-10T06:15:37.258Z,16.4
2023-05-10T06:16:54.318Z,16.5
2023-05-10T06:18:11.310Z,16.5
2023-05-10T06:19:28.293Z,16.6
2023-05-10T06:20:45.272Z,16.8
2023-05-10T06:22:02.316Z,17.3
2023-05-10T06:23:19.327Z,17.7
2023-05-10T06:24:36.275Z,18.2
2023-05-10T06:25:53.300Z,18.7
2023-05-10T06:27:10.336Z,19.1
2023-05-10T06:28:27.279Z,19.3
2023-05-10T06:29:44.293Z,19.4
2023-05-10T06:31:01.389Z,19.6
2023-05-10T06:32:19.004Z,19.8
2023-05-10T06:33:36.310Z,20
2023-05-10T06:34:53.288Z,20.1
2023-05-10T06:36:10.288Z,20.2
2023-05-10T06:37:27.316Z,20.3
2023-05-10T06:38:44.314Z,20.5
2023-05-10T06:40:01.417Z,20.5
2023-05-10T06:41:18.354Z,20.3
2023-05-10T06:42:35.338Z,20.4
2023-05-10T06:43:52.299Z,20.7
2023-05-10T06:45:09.331Z,21
2023-05-10T06:46:26.362Z,21.1
2023-05-10T06:47:43.352Z,21.1
2023-05-10T06:49:00.334Z,21
2023-05-10T06:50:17.335Z,21
2023-05-10T06:51:34.405Z,20.9
2023-05-10T06:52:53.035Z,21
2023-05-10T06:54:08.370Z,21.2
2023-05-10T06:55:25.365Z,21.4
2023-05-10T06:56:42.365Z,21.2
2023-05-10T06:57:59.311Z,21.1
2023-05-10T06:59:16.377Z,21.2
2023-05-10T07:00:33.402Z,21.6
2023-05-10T07:01:50.420Z,21.7
2023-05-10T07:03:07.432Z,21.6
2023-05-10T07:04:24.355Z,21.5
2023-05-10T07:05:41.406Z,21.3
2023-05-10T07:06:58.733Z,21.2
2023-05-10T07:08:15.352Z,21.2
2023-05-10T07:09:32.370Z,21.2
2023-05-10T07:10:49.354Z,21.2
2023-05-10T07:12:07.856Z,21.1
2023-05-10T07:13:23.440Z,21.1
2023-05-10T07:14:40.381Z,21.2
2023-05-10T07:15:57.426Z,21.3
2023-05-10T07:17:14.448Z,21.4
2023-05-10T07:18:31.436Z,21.5
2023-05-10T07:19:48.479Z,21.5
2023-05-10T07:21:05.375Z,21.6
2023-05-10T07:22:22.403Z,21.6
2023-05-10T07:23:39.433Z,21.7
2023-05-10T07:24:56.411Z,21.8
2023-05-10T07:26:13.403Z,21.9
2023-05-10T07:27:30.360Z,21.9
2023-05-10T07:28:47.448Z,21.9
2023-05-10T07:30:04.412Z,22
2023-05-10T07:31:21.413Z,21.8
2023-05-10T07:32:38.528Z,21.6
2023-05-10T07:33:55.378Z,21.7
2023-05-10T07:35:12.393Z,21.9
2023-05-10T07:36:29.390Z,22.3
2023-05-10T07:37:46.437Z,22.4
2023-05-10T07:39:03.408Z,22.3
2023-05-10T07:40:20.451Z,22.3
2023-05-10T07:41:37.415Z,22.5
2023-05-10T07:42:54.442Z,22.5
2023-05-10T07:44:11.411Z,22.4
2023-05-10T07:45:28.452Z,22.3
2023-05-10T07:46:45.426Z,22.2
2023-05-10T07:48:02.458Z,22.4
2023-05-10T07:49:19.444Z,22.6
2023-05-10T07:50:36.419Z,22.7
2023-05-10T07:51:53.412Z,22.5
2023-05-10T07:53:10.456Z,22.5
2023-05-10T07:54:27.408Z,22.5
2023-05-10T07:55:44.470Z,22.5
2023-05-10T07:57:01.447Z,22.5
2023-05-10T07:58:18.464Z,22.4
2023-05-10T07:59:35.429Z,22.4
2023-05-10T08:00:52.452Z,22.4
2023-05-10T08:02:09.486Z,22.8
2023-05-10T08:03:26.534Z,23.1
2023-05-10T08:04:43.551Z,23.4
2023-05-10T08:06:00.440Z,23.3
2023-05-10T08:07:17.426Z,23.3
2023-05-10T08:08:34.462Z,23.2
2023-05-10T08:09:51.502Z,23
2023-05-10T08:11:08.565Z,23
2023-05-10T08:12:25.423Z,22.9
2023-05-10T08:13:42.444Z,23
2023-05-10T08:14:59.458Z,23.3
2023-05-10T08:16:16.589Z,23.5
2023-05-10T08:17:33.543Z,23.8
2023-05-10T08:18:50.455Z,23.8
2023-05-10T08:20:07.468Z,23.7
2023-05-10T08:21:24.533Z,23.5
2023-05-10T08:22:41.458Z,23.4
2023-05-10T08:23:58.518Z,23.1
2023-05-10T08:25:15.785Z,22.9
2023-05-10T08:26:32.488Z,22.7
2023-05-10T08:27:49.459Z,22.7
2023-05-10T08:29:06.503Z,22.9
2023-05-10T08:30:23.483Z,22.7
2023-05-10T08:31:40.513Z,22.7
2023-05-10T08:32:57.522Z,22.9
2023-05-10T08:34:14.510Z,23.1
2023-05-10T08:35:31.503Z,23.2
2023-05-10T08:36:48.497Z,23
2023-05-10T08:38:05.478Z,23
2023-05-10T08:39:29.619Z,23.2
2023-05-10T08:40:39.577Z,23.2
2023-05-10T08:41:56.514Z,23.4
2023-05-10T08:43:13.569Z,23.4
2023-05-10T08:44:30.478Z,23.8
2023-05-10T08:45:47.524Z,24.1
2023-05-10T08:47:04.539Z,24.2
2023-05-10T08:48:21.510Z,24.1
2023-05-10T08:49:38.497Z,24.1
2023-05-10T08:50:55.529Z,23.9
2023-05-10T08:52:12.494Z,23.8
2023-05-10T08:53:29.553Z,23.8
2023-05-10T08:54:46.521Z,23.8
2023-05-10T08:56:03.616Z,23.7
2023-05-10T08:57:20.585Z,23.5
2023-05-10T08:58:37.545Z,23.3
2023-05-10T08:59:54.516Z,23.3
2023-05-10T09:01:11.572Z,23.5
2023-05-10T09:02:28.578Z,23.8
2023-05-10T09:03:45.538Z,23.8
2023-05-10T09:05:02.618Z,24.1
2023-05-10T09:06:19.580Z,24.1
2023-05-10T09:07:36.549Z,24
2023-05-10T09:08:53.556Z,23.9
2023-05-10T09:10:10.557Z,23.8
2023-05-10T09:11:27.566Z,23.6
2023-05-10T09:12:44.566Z,23.6
2023-05-10T09:14:01.565Z,23.7
2023-05-10T09:15:18.823Z,23.7
2023-05-10T09:16:35.599Z,23.9
2023-05-10T09:17:52.617Z,24.2
2023-05-10T09:19:09.779Z,24.4
2023-05-10T09:20:26.580Z,24.6
2023-05-10T09:21:43.602Z,25
2023-05-10T09:23:00.557Z,25.4
2023-05-10T09:24:17.560Z,25.5
2023-05-10T09:25:34.549Z,25.5
2023-05-10T09:26:51.686Z,25.7
2023-05-10T09:28:08.723Z,25.9
2023-05-10T09:29:25.654Z,25.7
2023-05-10T09:30:42.634Z,25.4
2023-05-10T09:31:59.569Z,25
2023-05-10T09:33:16.589Z,24.7
2023-05-10T09:34:33.589Z,24.6
2023-05-10T09:35:50.647Z,24.4
2023-05-10T09:37:07.617Z,24.3
2023-05-10T09:38:24.705Z,24.2
2023-05-10T09:39:41.612Z,23.8
2023-05-10T09:40:58.676Z,23.7
2023-05-10T09:42:15.671Z,23.7
2023-05-10T09:43:32.640Z,23.9
2023-05-10T09:44:49.589Z,24
2023-05-10T09:46:06.629Z,23.7
2023-05-10T09:47:23.654Z,23.4
2023-05-10T09:48:40.608Z,23.3
2023-05-10T09:49:57.612Z,23.3
2023-05-10T09:51:14.601Z,23.2
2023-05-10T09:52:31.679Z,23.3
2023-05-10T09:53:48.642Z,23.6
2023-05-10T09:55:05.620Z,23.7
2023-05-10T09:56:22.606Z,24
2023-05-10T09:57:39.605Z,24.2
2023-05-10T09:59:01.718Z,24.4
2023-05-10T10:00:18.635Z,24.4
2023-05-10T10:01:35.697Z,24.5
2023-05-10T10:02:52.663Z,24.9
2023-05-10T10:04:09.652Z,25.1
2023-05-10T10:05:26.659Z,25
2023-05-10T10:06:43.634Z,24.8
2023-05-10T10:08:00.657Z,24.6
2023-05-10T10:09:17.636Z,24.3
2023-05-10T10:10:34.674Z,24.1
2023-05-10T10:11:51.628Z,24.3
2023-05-10T10:13:08.679Z,24.4
2023-05-10T10:14:25.654Z,24.3
2023-05-10T10:15:42.703Z,24.4
2023-05-10T10:17:07.917Z,24.6
2023-05-10T10:18:16.847Z,24.5
2023-05-10T10:19:33.660Z,24.3
2023-05-10T10:20:50.693Z,24.2
2023-05-10T10:22:07.678Z,24.2
2023-05-10T10:23:24.694Z,24.4
2023-05-10T10:24:41.716Z,24.7
2023-05-10T10:25:58.673Z,24.6
2023-05-10T10:27:15.695Z,24.6
2023-05-10T10:28:32.704Z,24.6
2023-05-10T10:29:49.731Z,24.6
2023-05-10T10:31:06.737Z,24.6
2023-05-10T10:32:23.683Z,24.5
2023-05-10T10:33:40.708Z,24.3
2023-05-10T10:34:57.678Z,24.1
2023-05-10T10:36:14.721Z,24.1
2023-05-10T10:37:31.666Z,24
2023-05-10T10:38:48.769Z,23.9
2023-05-10T10:40:05.708Z,23.9
2023-05-10T10:41:22.720Z,24
2023-05-10T10:42:39.678Z,24.3
2023-05-10T10:43:56.729Z,24.4
2023-05-10T10:45:13.793Z,24.6
2023-05-10T10:46:30.755Z,24.5
2023-05-10T10:47:47.784Z,24.2
2023-05-10T10:49:04.722Z,23.6
2023-05-10T10:50:21.707Z,23
2023-05-10T10:51:38.719Z,22.9
2023-05-10T10:52:55.739Z,23.2
2023-05-10T10:54:12.746Z,23.5
2023-05-10T10:55:29.754Z,23.8
2023-05-10T10:56:46.736Z,24.3
2023-05-10T10:58:03.729Z,24.6
2023-05-10T10:59:20.791Z,24.6
2023-05-10T11:00:37.986Z,24.6
2023-05-10T11:01:54.733Z,24.4
2023-05-10T11:03:11.775Z,24.5
2023-05-10T11:04:28.782Z,24.7
2023-05-10T11:05:45.740Z,24.9
2023-05-10T11:07:02.711Z,24.9
2023-05-10T11:08:19.755Z,24.8
2023-05-10T11:09:36.749Z,24.6
2023-05-10T11:10:53.770Z,24.6
2023-05-10T11:12:10.768Z,24.8
2023-05-10T11:13:27.754Z,24.7
2023-05-10T11:14:44.808Z,24.6
2023-05-10T11:16:01.801Z,24.6
2023-05-10T11:17:18.760Z,24.9
2023-05-10T11:18:35.782Z,25.1
2023-05-10T11:19:52.739Z,25.2
2023-05-10T11:21:09.755Z,24.9
2023-05-10T11:22:26.800Z,24.8
2023-05-10T11:23:43.756Z,24.7
2023-05-10T11:25:00.740Z,24.4
2023-05-10T11:26:17.749Z,24
2023-05-10T11:27:34.794Z,23.6
2023-05-10T11:28:51.754Z,23.4
2023-05-10T11:30:08.852Z,23.6
2023-05-10T11:31:25.833Z,23.9
2023-05-10T11:32:42.813Z,24.1
2023-05-10T11:33:59.764Z,24.3
2023-05-10T11:35:16.772Z,24.3
2023-05-10T11:36:33.819Z,24.1
2023-05-10T11:37:50.804Z,23.9
2023-05-10T11:39:07.806Z,24
2023-05-10T11:40:24.771Z,24.2
2023-05-10T11:41:43.019Z,24.3
2023-05-10T11:42:58.825Z,24
2023-05-10T11:44:15.785Z,24
2023-05-10T11:45:32.845Z,24.3
2023-05-10T11:46:49.897Z,24.7
2023-05-10T11:48:06.857Z,25.2
2023-05-10T11:49:23.798Z,25.8
2023-05-10T11:50:40.834Z,26.1
2023-05-10T11:51:57.784Z,26.1
2023-05-10T11:53:14.834Z,26.1
2023-05-10T11:54:31.825Z,25.7
2023-05-10T11:55:48.827Z,25.2
2023-05-10T11:57:05.811Z,25
2023-05-10T11:58:22.860Z,24.8
2023-05-10T11:59:41.205Z,24.6
2023-05-10T12:00:56.821Z,24.3
2023-05-10T12:02:13.833Z,24.1
2023-05-10T12:03:30.947Z,24
2023-05-10T12:04:47.842Z,23.9
2023-05-10T12:06:04.847Z,23.9
2023-05-10T12:07:21.823Z,23.9
2023-05-10T12:08:38.834Z,23.9
2023-05-10T12:09:55.820Z,24
2023-05-10T12:11:12.834Z,24.3
2023-05-10T12:12:29.815Z,24.5
2023-05-10T12:13:46.858Z,24.7
2023-05-10T12:15:04.178Z,25
2023-05-10T12:16:20.888Z,25.1
2023-05-10T12:17:37.851Z,25.1
2023-05-10T12:18:54.981Z,24.9
2023-05-10T12:20:11.861Z,24.9
2023-05-10T12:21:28.921Z,24.7
2023-05-10T12:22:45.850Z,24.3
2023-05-10T12:24:02.877Z,24.1
2023-05-10T12:25:19.847Z,23.9
2023-05-10T12:26:36.885Z,23.8
2023-05-10T12:28:03.870Z,23.9
2023-05-10T12:29:20.869Z,24.3
2023-05-10T12:30:37.861Z,24.5
2023-05-10T12:31:54.935Z,24.6
2023-05-10T12:33:11.918Z,24.8
2023-05-10T12:34:28.925Z,24.8
2023-05-10T12:35:45.887Z,25
2023-05-10T12:37:02.924Z,25.1
2023-05-10T12:38:19.856Z,25
2023-05-10T12:39:36.879Z,25.1
2023-05-10T12:40:53.890Z,25.1
2023-05-10T12:42:10.907Z,25.1
2023-05-10T12:43:27.885Z,25
2023-05-10T12:44:44.912Z,25.4
2023-05-10T12:46:01.976Z,25.8
2023-05-10T12:47:18.901Z,25.9
2023-05-10T12:48:35.939Z,25.8
2023-05-10T12:49:52.961Z,25.7
2023-05-10T12:51:10.020Z,25.4
2023-05-10T12:52:26.942Z,25.1
2023-05-10T12:53:45.710Z,24.8
2023-05-10T12:55:00.933Z,24.6
2023-05-10T12:56:17.922Z,24.6
2023-05-10T12:57:35.098Z,24.7
2023-05-10T12:58:51.947Z,24.7
2023-05-10T13:00:08.933Z,24.6
2023-05-10T13:01:25.940Z,24.6
2023-05-10T13:02:42.953Z,24.5
2023-05-10T13:03:59.937Z,24.5
2023-05-10T13:05:16.925Z,24.4
2023-05-10T13:06:33.939Z,24.5
2023-05-10T13:07:51.065Z,24.7
2023-05-10T13:09:08.089Z,24.9
2023-05-10T13:10:24.947Z,25.1
2023-05-10T13:11:41.972Z,25.4
2023-05-10T13:12:59.195Z,25.2
2023-05-10T13:14:16.005Z,25.2
2023-05-10T13:15:32.947Z,25.3
2023-05-10T13:16:50.000Z,25.3
2023-05-10T13:18:07.056Z,25.2
2023-05-10T13:19:23.975Z,25.1
2023-05-10T13:20:40.971Z,24.9
2023-05-10T13:21:57.993Z,24.7
2023-05-10T13:23:14.964Z,24.5
2023-05-10T13:24:31.998Z,24.4
2023-05-10T13:25:48.984Z,24.2
2023-05-10T13:27:06.014Z,24.1
2023-05-10T13:28:22.962Z,23.9
2023-05-10T13:29:40.197Z,23.7
2023-05-10T13:30:58.324Z,23.9
2023-05-10T13:32:14.995Z,24.2
2023-05-10T13:33:31.967Z,24.5
2023-05-10T13:34:48.985Z,24.8
2023-05-10T13:36:05.979Z,24.9
2023-05-10T13:37:23.022Z,25.1
2023-05-10T13:38:39.993Z,25.1
2023-05-10T13:39:56.988Z,25
2023-05-10T13:41:13.997Z,25.2
2023-05-10T13:42:31.138Z,25.2
2023-05-10T13:43:48.035Z,25.2
2023-05-10T13:45:05.218Z,25.2
2023-05-10T13:46:22.678Z,25.4
2023-05-10T13:47:41.185Z,25.4
2023-05-10T13:48:58.117Z,25.2
2023-05-10T13:50:15.193Z,24.9
2023-05-10T13:51:34.901Z,24.6
2023-05-10T13:52:53.076Z,24.4
2023-05-10T13:54:13.393Z,24.4
2023-05-10T13:55:43.274Z,24.4
2023-05-10T13:57:00.053Z,24.3
2023-05-10T13:58:17.009Z,24.2
2023-05-10T13:59:34.128Z,24.1
2023-05-10T14:00:51.019Z,24
2023-05-10T14:02:08.121Z,23.9
2023-05-10T14:03:25.121Z,23.9
2023-05-10T14:04:42.087Z,24.1
2023-05-10T14:05:59.122Z,24.5
2023-05-10T14:07:16.055Z,24.8
2023-05-10T14:08:33.049Z,25
2023-05-10T14:09:50.063Z,25.1
2023-05-10T14:11:07.079Z,25.2
2023-05-10T14:12:24.030Z,25.1
2023-05-10T14:13:41.081Z,25.1
2023-05-10T14:14:58.039Z,25.2
2023-05-10T14:16:15.095Z,25.4
2023-05-10T14:17:32.061Z,25.4
2023-05-10T14:18:49.079Z,25.4
2023-05-10T14:20:06.097Z,25.4
2023-05-10T14:21:23.086Z,25.4
2023-05-10T14:22:40.084Z,25.4
2023-05-10T14:23:57.052Z,25.4
2023-05-10T14:25:14.111Z,25.4
2023-05-10T14:26:31.081Z,25.6
2023-05-10T14:27:48.115Z,25.9
2023-05-10T14:29:05.087Z,26.2
2023-05-10T14:30:22.069Z,26.5
2023-05-10T14:31:39.253Z,26.7
2023-05-10T14:32:56.104Z,26.5
2023-05-10T14:34:13.075Z,26.1
2023-05-10T14:35:30.116Z,25.8
2023-05-10T14:36:47.201Z,25.3
2023-05-10T14:38:04.072Z,24.8
2023-05-10T14:39:21.257Z,24.6
2023-05-10T14:40:41.188Z,24.5
2023-05-10T14:42:00.184Z,24.6
2023-05-10T14:43:17.095Z,24.8
2023-05-10T14:44:34.085Z,25
2023-05-10T14:45:51.135Z,25.2
2023-05-10T14:47:08.944Z,25.4
2023-05-10T14:48:25.082Z,25.4
2023-05-10T14:49:42.118Z,25.3
2023-05-10T14:50:59.359Z,25.3
2023-05-10T14:52:16.181Z,25.1
2023-05-10T14:53:33.107Z,24.9
2023-05-10T14:54:50.259Z,24.9
2023-05-10T14:56:07.099Z,24.7
2023-05-10T14:57:24.120Z,24.6
2023-05-10T14:58:41.095Z,24.5
2023-05-10T14:59:58.096Z,24.6
2023-05-10T15:01:15.144Z,24.6
2023-05-10T15:02:32.275Z,24.5
2023-05-10T15:03:49.123Z,24.3
2023-05-10T15:05:07.001Z,24.1
2023-05-10T15:06:24.306Z,23.9
2023-05-10T15:07:42.272Z,23.8
2023-05-10T15:08:59.446Z,23.6
2023-05-10T15:10:16.143Z,23.6
2023-05-10T15:11:33.128Z,23.6
2023-05-10T15:12:50.813Z,23.7
2023-05-10T15:14:07.153Z,23.7
2023-05-10T15:15:24.165Z,23.7
2023-05-10T15:16:41.122Z,23.7
2023-05-10T15:17:58.174Z,23.8
2023-05-10T15:19:15.132Z,23.9
2023-05-10T15:20:32.169Z,24.1
2023-05-10T15:21:49.166Z,24.2
2023-05-10T15:23:06.171Z,24.2
2023-05-10T15:24:23.203Z,24.2
2023-05-10T15:25:40.175Z,24.2
2023-05-10T15:26:57.255Z,24.2
2023-05-10T15:28:14.153Z,24.1
2023-05-10T15:29:31.151Z,24.1
2023-05-10T15:30:48.147Z,24.1
2023-05-10T15:32:05.796Z,24.2
2023-05-10T15:33:22.276Z,24.2
2023-05-10T15:34:39.197Z,24.3
2023-05-10T15:35:56.182Z,24.4
2023-05-10T15:37:13.189Z,24.4
2023-05-10T15:38:30.202Z,24.3
2023-05-10T15:39:47.169Z,24
2023-05-10T15:41:04.181Z,23.9
2023-05-10T15:42:21.214Z,23.8
2023-05-10T15:43:38.173Z,23.8
2023-05-10T15:44:55.195Z,24
2023-05-10T15:46:12.217Z,24.2
2023-05-10T15:47:29.261Z,24.4
2023-05-10T15:48:46.249Z,24.5
2023-05-10T15:50:03.251Z,24.4
2023-05-10T15:51:20.261Z,24.3
2023-05-10T15:52:37.248Z,24.3
2023-05-10T15:54:06.263Z,24.3
2023-05-10T15:55:11.231Z,24.2
2023-05-10T15:56:28.207Z,24.1
2023-05-10T15:57:46.353Z,24.1
2023-05-10T15:59:03.237Z,24.1
2023-05-10T16:00:20.262Z,24.1
2023-05-10T16:01:38.219Z,24.2
2023-05-10T16:02:55.391Z,24.3
2023-05-10T16:04:12.238Z,24.5
2023-05-10T16:05:29.303Z,24.6
2023-05-10T16:06:46.255Z,24.7
2023-05-10T16:08:03.391Z,24.8
2023-05-10T16:09:20.336Z,24.7
2023-05-10T16:10:37.260Z,24.6
2023-05-10T16:11:54.260Z,24.5
2023-05-10T16:13:11.322Z,24.5
2023-05-10T16:14:28.249Z,24.8
2023-05-10T16:15:45.280Z,24.9
2023-05-10T16:17:05.079Z,24.9
2023-05-10T16:18:21.698Z,24.9
2023-05-10T16:19:39.312Z,24.7
2023-05-10T16:20:56.288Z,24.7
2023-05-10T16:22:13.329Z,24.7
2023-05-10T16:23:30.323Z,24.7
2023-05-10T16:24:47.594Z,24.7
2023-05-10T16:26:04.338Z,24.7
2023-05-10T16:27:21.267Z,24.7
2023-05-10T16:28:38.343Z,24.6
2023-05-10T16:29:55.274Z,24.5
2023-05-10T16:31:12.453Z,24.5
2023-05-10T16:32:31.383Z,24.3
2023-05-10T16:33:48.329Z,24.2
2023-05-10T16:35:05.517Z,24.1
2023-05-10T16:36:22.328Z,24
2023-05-10T16:37:39.361Z,23.8
2023-05-10T16:38:56.282Z,23.7
2023-05-10T16:40:13.328Z,23.6
2023-05-10T16:41:30.413Z,23.5
2023-05-10T16:42:47.333Z,23.5
2023-05-10T16:44:04.303Z,23.5
2023-05-10T16:45:21.401Z,23.5
2023-05-10T16:46:38.480Z,23.5
2023-05-10T16:47:55.402Z,23.4
2023-05-10T16:49:13.322Z,23.3
2023-05-10T16:50:30.314Z,23.3
2023-05-10T16:51:47.339Z,23.4
2023-05-10T16:53:04.408Z,23.4
2023-05-10T16:54:21.360Z,23.4
2023-05-10T16:55:38.338Z,23.5
2023-05-10T16:56:55.348Z,23.5
2023-05-10T16:58:12.385Z,23.5
2023-05-10T16:59:29.318Z,23.5
2023-05-10T17:00:46.383Z,23.6
2023-05-10T17:02:03.376Z,23.6
2023-05-10T17:03:20.520Z,23.6
2023-05-10T17:04:37.598Z,23.6
2023-05-10T17:05:54.364Z,23.5
2023-05-10T17:07:11.369Z,23.4
2023-05-10T17:08:28.751Z,23.4
2023-05-10T17:09:45.345Z,23.3
2023-05-10T17:11:02.412Z,23.3